Terminal Aerodrome Forecast
Issued by NWS

Home | Current Version | Previous Version | Text Only | Print | Product List | Glossary On
Versions: 1 2 3 4 5 6 7 8 9 10 11 12 13 14 15 16 17 18 19 20 21 22 23
972
FTUS46 KPDT 162335
TAFPSC
TAF
KPSC 162335Z 1700/1724 34004KT 6SM HZ OVC028
     FM170300 VRB03KT 4SM BR OVC020
     FM171400 28004KT 3SM -SGPL BR BKN015 OVC090
     FM171800 34004KT 4SM -FZRAPL SCT020 BKN050
     FM172100 36005KT 6SM HZ VCSH SCT025 BKN060=

USA.gov is the U.S. government's official web portal to all federal, state and local government web resources and services.